.
Local / Fort Wayne - NE Ind.

U N D E R   C O N S T R U C T I O N

Local Weather
Fort Wayne – NE Indiana

Northern Indiana (IWX) Radar

Latest IWX NEXRAD
Base Reflectivity



Latest IWX NEXRAD
Base Velocity

Indiana-Ohio Visible Satellite

For infrared and water vapor imagery, see Great Lakes - Midwest.

Current Conditions

Recent report from the Fort Wayne International Airport

Apr 24, 2019 - 11:54 AM EDT / 2019.04.24 1554 UTC


The skies are mostly cloudy. The temperature is 54.0 F (12.2 C) and the dew point is 39.9 F (4.4 C), giving a relative humidity of 58%. The barometric pressure is 30.04 in. Hg (1017 hPa). The wind is from the NE (050 degrees) at 7 MPH (6 KT), and the visibility is 10 mile(s).

KFWA 241554Z 05006KT 10SM FEW095 FEW150 SCT200 BKN270 12/04 A3004 RMK AO2 SLP174 T01220044

Local Weather — Contents

Local Weather — Links

CoCoRaHS
IN-AL-39
A2 Web Hosting
Creative Commons License
GoDaddy
search engine by freefind advanced

loaded 2019-04-24 12:27:20 • last modified 2017-02-11 13:27:36
Privacy PolicyDisclaimer
• wx.awcolley.com is powered by PmWiki v.2002016 •
• all content (unless otherwise noted) © 2019 A W Colley